createdAt,value
2023-05-10T00:00:22.421Z,455.00
2023-05-10T00:01:22.464Z,454.00
2023-05-10T00:02:22.451Z,453.00
2023-05-10T00:03:22.532Z,454.00
2023-05-10T00:04:22.494Z,456.00
2023-05-10T00:05:22.458Z,454.00
2023-05-10T00:06:22.489Z,454.00
2023-05-10T00:07:22.439Z,452.00
2023-05-10T00:08:22.437Z,447.00
2023-05-10T00:09:22.447Z,446.00
2023-05-10T00:10:22.449Z,448.00
2023-05-10T00:11:23.130Z,448.00
2023-05-10T00:12:22.427Z,447.00
2023-05-10T00:13:22.498Z,445.00
2023-05-10T00:14:22.436Z,443.00
2023-05-10T00:15:22.447Z,445.00
2023-05-10T00:16:22.865Z,445.00
2023-05-10T00:17:22.462Z,445.00
2023-05-10T00:18:22.399Z,446.00
2023-05-10T00:19:22.407Z,446.00
2023-05-10T00:20:22.424Z,447.00
2023-05-10T00:21:22.486Z,450.00
2023-05-10T00:22:22.428Z,453.00
2023-05-10T00:23:22.452Z,451.00
2023-05-10T00:24:22.446Z,451.00
2023-05-10T00:25:22.417Z,450.00
2023-05-10T00:26:22.418Z,451.00
2023-05-10T00:27:22.405Z,453.00
2023-05-10T00:28:22.434Z,450.00
2023-05-10T00:29:22.464Z,449.00
2023-05-10T00:30:22.372Z,449.00
2023-05-10T00:31:22.451Z,450.00
2023-05-10T00:32:22.449Z,449.00
2023-05-10T00:33:22.406Z,447.00
2023-05-10T00:34:22.412Z,446.00
2023-05-10T00:35:22.422Z,448.00
2023-05-10T00:36:22.387Z,451.00
2023-05-10T00:37:22.446Z,450.00
2023-05-10T00:38:22.448Z,451.00
2023-05-10T00:39:22.431Z,451.00
2023-05-10T00:40:22.418Z,450.00
2023-05-10T00:41:22.426Z,447.00
2023-05-10T00:42:22.437Z,447.00
2023-05-10T00:43:22.414Z,449.00
2023-05-10T00:44:22.395Z,448.00
2023-05-10T00:45:22.382Z,451.00
2023-05-10T00:46:22.556Z,451.00
2023-05-10T00:47:22.415Z,448.00
2023-05-10T00:48:22.397Z,448.00
2023-05-10T00:49:22.375Z,446.00
2023-05-10T00:50:22.381Z,444.00
2023-05-10T00:51:22.396Z,443.00
2023-05-10T00:52:22.392Z,441.00
2023-05-10T00:53:22.403Z,442.00
2023-05-10T00:54:22.339Z,445.00
2023-05-10T00:55:22.355Z,445.00
2023-05-10T00:56:22.353Z,444.00
2023-05-10T00:57:22.330Z,446.00
2023-05-10T00:58:22.373Z,449.00
2023-05-10T00:59:22.381Z,450.00
2023-05-10T01:00:22.340Z,451.00
2023-05-10T01:01:22.408Z,449.00
2023-05-10T01:02:22.456Z,452.00
2023-05-10T01:03:22.460Z,452.00
2023-05-10T01:04:22.382Z,451.00
2023-05-10T01:05:22.396Z,449.00
2023-05-10T01:06:22.338Z,450.00
2023-05-10T01:07:22.395Z,447.00
2023-05-10T01:08:22.393Z,446.00
2023-05-10T01:09:22.354Z,449.00
2023-05-10T01:10:22.343Z,446.00
2023-05-10T01:11:22.359Z,444.00
2023-05-10T01:12:22.449Z,447.00
2023-05-10T01:13:22.884Z,446.00
2023-05-10T01:14:22.756Z,445.00
2023-05-10T01:15:22.495Z,448.00
2023-05-10T01:16:22.568Z,447.00
2023-05-10T01:17:22.460Z,445.00
2023-05-10T01:18:22.415Z,442.00
2023-05-10T01:19:22.415Z,441.00
2023-05-10T01:20:22.434Z,439.00
2023-05-10T01:21:22.430Z,438.00
2023-05-10T01:22:22.432Z,436.00
2023-05-10T01:23:22.463Z,438.00
2023-05-10T01:24:22.439Z,439.00
2023-05-10T01:25:22.540Z,438.00
2023-05-10T01:26:22.475Z,439.00
2023-05-10T01:27:22.434Z,439.00
2023-05-10T01:28:22.452Z,440.00
2023-05-10T01:29:22.453Z,440.00
2023-05-10T01:30:22.538Z,442.00
2023-05-10T01:31:22.504Z,443.00
2023-05-10T01:32:22.444Z,442.00
2023-05-10T01:33:22.476Z,443.00
2023-05-10T01:34:22.490Z,443.00
2023-05-10T01:35:22.488Z,441.00
2023-05-10T01:36:22.467Z,441.00
2023-05-10T01:37:22.474Z,442.00
2023-05-10T01:38:22.478Z,442.00
2023-05-10T01:39:22.517Z,442.00
2023-05-10T01:40:22.538Z,438.00
2023-05-10T01:41:22.534Z,438.00
2023-05-10T01:42:22.502Z,436.00
2023-05-10T01:43:22.551Z,436.00
2023-05-10T01:44:22.522Z,437.00
2023-05-10T01:45:22.560Z,438.00
2023-05-10T01:46:22.584Z,439.00
2023-05-10T01:47:22.597Z,440.00
2023-05-10T01:48:22.592Z,438.00
2023-05-10T01:49:22.581Z,439.00
2023-05-10T01:50:22.542Z,439.00
2023-05-10T01:51:22.528Z,439.00
2023-05-10T01:52:22.569Z,441.00
2023-05-10T01:53:22.566Z,443.00
2023-05-10T01:54:22.558Z,443.00
2023-05-10T01:55:22.589Z,442.00
2023-05-10T01:56:22.567Z,439.00
2023-05-10T01:57:22.570Z,438.00
2023-05-10T01:58:22.581Z,439.00
2023-05-10T01:59:22.629Z,439.00
2023-05-10T02:00:22.591Z,440.00
2023-05-10T02:01:22.815Z,441.00
2023-05-10T02:02:22.625Z,441.00
2023-05-10T02:03:22.716Z,444.00
2023-05-10T02:04:22.618Z,443.00
2023-05-10T02:05:22.661Z,442.00
2023-05-10T02:06:22.653Z,440.00
2023-05-10T02:07:22.637Z,440.00
2023-05-10T02:08:22.661Z,438.00
2023-05-10T02:09:22.682Z,435.00
2023-05-10T02:10:22.726Z,433.00
2023-05-10T02:11:22.657Z,439.00
2023-05-10T02:12:22.663Z,442.00
2023-05-10T02:13:22.741Z,442.00
2023-05-10T02:14:22.689Z,443.00
2023-05-10T02:15:22.699Z,443.00
2023-05-10T02:16:22.747Z,444.00
2023-05-10T02:17:22.744Z,444.00
2023-05-10T02:18:22.717Z,443.00
2023-05-10T02:19:22.711Z,443.00
2023-05-10T02:20:22.701Z,441.00
2023-05-10T02:21:22.720Z,441.00
2023-05-10T02:22:22.743Z,439.00
2023-05-10T02:23:22.741Z,439.00
2023-05-10T02:24:22.763Z,438.00
2023-05-10T02:25:22.732Z,438.00
2023-05-10T02:26:22.731Z,437.00
2023-05-10T02:27:22.796Z,437.00
2023-05-10T02:28:22.814Z,435.00
2023-05-10T02:29:22.790Z,434.00
2023-05-10T02:30:22.830Z,433.00
2023-05-10T02:31:22.887Z,434.00
2023-05-10T02:32:22.885Z,437.00
2023-05-10T02:33:22.838Z,437.00
2023-05-10T02:34:22.891Z,436.00
2023-05-10T02:35:22.896Z,436.00
2023-05-10T02:36:22.908Z,434.00
2023-05-10T02:37:22.878Z,434.00
2023-05-10T02:38:22.891Z,436.00
2023-05-10T02:39:22.924Z,439.00
2023-05-10T02:40:22.927Z,440.00
2023-05-10T02:41:22.941Z,440.00
2023-05-10T02:42:22.952Z,440.00
2023-05-10T02:43:22.963Z,438.00
2023-05-10T02:44:22.932Z,436.00
2023-05-10T02:45:22.965Z,435.00
2023-05-10T02:46:23.050Z,438.00
2023-05-10T02:47:22.993Z,438.00
2023-05-10T02:48:23.026Z,439.00
2023-05-10T02:49:23.104Z,440.00
2023-05-10T02:50:23.050Z,438.00
2023-05-10T02:51:23.009Z,438.00
2023-05-10T02:52:23.059Z,438.00
2023-05-10T02:53:23.082Z,438.00
2023-05-10T02:54:23.078Z,441.00
2023-05-10T02:55:23.068Z,439.00
2023-05-10T02:56:23.081Z,442.00
2023-05-10T02:57:23.083Z,441.00
2023-05-10T02:58:23.164Z,441.00
2023-05-10T02:59:23.110Z,439.00
2023-05-10T03:00:23.101Z,436.00
2023-05-10T03:01:23.205Z,433.00
2023-05-10T03:02:23.222Z,433.00
2023-05-10T03:03:23.193Z,432.00
2023-05-10T03:04:23.270Z,432.00
2023-05-10T03:05:23.215Z,433.00
2023-05-10T03:06:23.187Z,434.00
2023-05-10T03:07:23.238Z,435.00
2023-05-10T03:08:23.235Z,437.00
2023-05-10T03:09:23.238Z,437.00
2023-05-10T03:10:23.256Z,435.00
2023-05-10T03:11:23.271Z,433.00
2023-05-10T03:12:23.262Z,433.00
2023-05-10T03:13:23.430Z,433.00
2023-05-10T03:14:23.312Z,432.00
2023-05-10T03:15:23.361Z,430.00
2023-05-10T03:16:23.342Z,433.00
2023-05-10T03:17:23.389Z,434.00
2023-05-10T03:18:23.468Z,437.00
2023-05-10T03:19:23.391Z,437.00
2023-05-10T03:20:23.422Z,440.00
2023-05-10T03:21:23.420Z,439.00
2023-05-10T03:22:23.488Z,438.00
2023-05-10T03:23:23.472Z,437.00
2023-05-10T03:24:23.486Z,437.00
2023-05-10T03:25:23.485Z,437.00
2023-05-10T03:26:23.490Z,436.00
2023-05-10T03:27:23.575Z,435.00
2023-05-10T03:28:23.580Z,433.00
2023-05-10T03:29:23.787Z,433.00
2023-05-10T03:30:23.629Z,433.00
2023-05-10T03:31:23.704Z,432.00
2023-05-10T03:32:23.649Z,430.00
2023-05-10T03:33:23.651Z,431.00
2023-05-10T03:34:23.724Z,430.00
2023-05-10T03:35:23.715Z,429.00
2023-05-10T03:36:23.737Z,431.00
2023-05-10T03:37:23.889Z,431.00
2023-05-10T03:38:24.055Z,433.00
2023-05-10T03:39:23.960Z,436.00
2023-05-10T03:40:23.855Z,436.00
2023-05-10T03:41:23.867Z,436.00
2023-05-10T03:42:23.835Z,437.00
2023-05-10T03:43:23.806Z,438.00
2023-05-10T03:44:23.824Z,436.00
2023-05-10T03:45:23.865Z,435.00
2023-05-10T03:46:23.997Z,438.00
2023-05-10T03:47:23.915Z,438.00
2023-05-10T03:48:23.920Z,438.00
2023-05-10T03:49:23.917Z,437.00
2023-05-10T03:50:23.932Z,437.00
2023-05-10T03:51:23.973Z,437.00
2023-05-10T03:52:23.939Z,435.00
2023-05-10T03:53:23.985Z,436.00
2023-05-10T03:54:24.001Z,438.00
2023-05-10T03:55:24.050Z,438.00
2023-05-10T03:56:24.086Z,439.00
2023-05-10T03:57:24.088Z,439.00
2023-05-10T03:58:24.048Z,436.00
2023-05-10T03:59:24.103Z,436.00
2023-05-10T04:00:24.115Z,438.00
2023-05-10T04:01:24.151Z,439.00
2023-05-10T04:02:24.234Z,438.00
2023-05-10T04:03:24.245Z,438.00
2023-05-10T04:04:24.152Z,439.00
2023-05-10T04:05:24.209Z,439.00
2023-05-10T04:06:24.285Z,437.00
2023-05-10T04:07:24.265Z,437.00
2023-05-10T04:08:24.304Z,437.00
2023-05-10T04:09:24.293Z,434.00
2023-05-10T04:10:24.329Z,431.00
2023-05-10T04:11:24.382Z,430.00
2023-05-10T04:12:24.381Z,429.00
2023-05-10T04:13:24.531Z,429.00
2023-05-10T04:14:24.404Z,430.00
2023-05-10T04:15:24.437Z,434.00
2023-05-10T04:16:24.458Z,432.00
2023-05-10T04:17:24.509Z,433.00
2023-05-10T04:18:24.463Z,433.00
2023-05-10T04:19:24.536Z,434.00
2023-05-10T04:20:24.515Z,436.00
2023-05-10T04:21:24.576Z,436.00
2023-05-10T04:22:24.570Z,435.00
2023-05-10T04:23:24.605Z,439.00
2023-05-10T04:24:24.644Z,441.00
2023-05-10T04:25:24.629Z,440.00
2023-05-10T04:26:24.644Z,438.00
2023-05-10T04:27:24.693Z,434.00
2023-05-10T04:28:24.700Z,432.00
2023-05-10T04:29:24.721Z,431.00
2023-05-10T04:30:24.748Z,431.00
2023-05-10T04:31:24.809Z,433.00
2023-05-10T04:32:24.788Z,433.00
2023-05-10T04:33:24.769Z,432.00
2023-05-10T04:34:24.799Z,431.00
2023-05-10T04:35:24.854Z,432.00
2023-05-10T04:36:24.866Z,434.00
2023-05-10T04:37:24.898Z,434.00
2023-05-10T04:38:24.939Z,433.00
2023-05-10T04:39:24.942Z,434.00
2023-05-10T04:40:25.928Z,434.00
2023-05-10T04:41:24.988Z,432.00
2023-05-10T04:42:24.996Z,434.00
2023-05-10T04:43:25.012Z,433.00
2023-05-10T04:44:25.027Z,432.00
2023-05-10T04:45:25.058Z,433.00
2023-05-10T04:46:25.167Z,435.00
2023-05-10T04:47:25.156Z,435.00
2023-05-10T04:48:25.139Z,436.00
2023-05-10T04:49:25.285Z,434.00
2023-05-10T04:50:25.158Z,435.00
2023-05-10T04:51:25.163Z,437.00
2023-05-10T04:52:25.235Z,439.00
2023-05-10T04:53:25.203Z,439.00
2023-05-10T04:54:25.245Z,437.00
2023-05-10T04:55:25.299Z,437.00
2023-05-10T04:56:25.307Z,434.00
2023-05-10T04:57:25.283Z,433.00
2023-05-10T04:58:25.328Z,432.00
2023-05-10T04:59:25.403Z,430.00
2023-05-10T05:00:25.394Z,426.00
2023-05-10T05:01:25.479Z,418.00
2023-05-10T05:02:25.590Z,416.00
2023-05-10T05:03:25.679Z,412.00
2023-05-10T05:04:25.631Z,411.00
2023-05-10T05:05:25.769Z,408.00
2023-05-10T05:06:25.735Z,406.00
2023-05-10T05:07:25.742Z,405.00
2023-05-10T05:08:25.853Z,407.00
2023-05-10T05:09:25.868Z,405.00
2023-05-10T05:10:25.918Z,407.00
2023-05-10T05:11:25.933Z,408.00
2023-05-10T05:12:25.952Z,409.00
2023-05-10T05:13:26.120Z,410.00
2023-05-10T05:14:26.075Z,412.00
2023-05-10T05:15:26.004Z,413.00
2023-05-10T05:16:26.095Z,413.00
2023-05-10T05:17:26.057Z,412.00
2023-05-10T05:18:26.069Z,413.00
2023-05-10T05:19:26.076Z,416.00
2023-05-10T05:20:26.097Z,419.00
2023-05-10T05:21:26.124Z,419.00
2023-05-10T05:22:26.098Z,419.00
2023-05-10T05:23:26.107Z,420.00
2023-05-10T05:24:26.188Z,418.00
2023-05-10T05:25:26.111Z,423.00
2023-05-10T05:26:26.142Z,424.00
2023-05-10T05:27:26.143Z,429.00
2023-05-10T05:28:26.169Z,427.00
2023-05-10T05:29:26.200Z,431.00
2023-05-10T05:30:26.216Z,433.00
2023-05-10T05:31:26.294Z,435.00
2023-05-10T05:32:26.315Z,516.00
2023-05-10T05:33:26.280Z,494.00
2023-05-10T05:34:26.389Z,495.00
2023-05-10T05:35:26.311Z,500.00
2023-05-10T05:36:26.309Z,506.00
2023-05-10T05:37:26.320Z,514.00
2023-05-10T05:38:26.321Z,632.00
2023-05-10T05:39:26.433Z,614.00
2023-05-10T05:40:26.367Z,573.00
2023-05-10T05:41:26.502Z,581.00
2023-05-10T05:42:26.430Z,577.00
2023-05-10T05:43:26.504Z,564.00
2023-05-10T05:44:26.558Z,557.00
2023-05-10T05:45:26.600Z,547.00
2023-05-10T05:46:26.664Z,555.00
2023-05-10T05:47:26.744Z,558.00
2023-05-10T05:48:26.833Z,562.00
2023-05-10T05:49:26.782Z,598.00
2023-05-10T05:50:26.849Z,603.00
2023-05-10T05:51:26.911Z,604.00
2023-05-10T05:52:26.946Z,612.00
2023-05-10T05:53:26.982Z,624.00
2023-05-10T05:54:27.002Z,639.00
2023-05-10T05:55:27.034Z,701.00
2023-05-10T05:56:26.947Z,733.00
2023-05-10T05:57:26.972Z,752.00
2023-05-10T05:58:27.003Z,766.00
2023-05-10T05:59:27.018Z,778.00
2023-05-10T06:00:27.076Z,793.00
2023-05-10T06:01:27.449Z,805.00
2023-05-10T06:02:27.266Z,820.00
2023-05-10T06:03:27.224Z,958.00
2023-05-10T06:04:27.498Z,944.00
2023-05-10T06:05:27.316Z,939.00
2023-05-10T06:06:27.427Z,942.00
2023-05-10T06:07:27.435Z,949.00
2023-05-10T06:08:27.451Z,955.00
2023-05-10T06:09:27.958Z,966.00
2023-05-10T06:10:27.611Z,977.00
2023-05-10T06:11:27.929Z,995.00
2023-05-10T06:12:27.550Z,1005.00
2023-05-10T06:13:27.585Z,1018.00
2023-05-10T06:14:27.523Z,1046.00
2023-05-10T06:15:27.516Z,1062.00
2023-05-10T06:16:27.567Z,1071.00
2023-05-10T06:17:27.634Z,1088.00
2023-05-10T06:18:27.565Z,1101.00
2023-05-10T06:19:27.568Z,1113.00
2023-05-10T06:20:27.659Z,1126.00
2023-05-10T06:21:27.512Z,1142.00
2023-05-10T06:22:27.529Z,1159.00
2023-05-10T06:23:27.565Z,1174.00
2023-05-10T06:24:27.553Z,1198.00
2023-05-10T06:25:27.553Z,1214.00
2023-05-10T06:26:27.557Z,1227.00
2023-05-10T06:27:27.567Z,1240.00
2023-05-10T06:28:27.929Z,1248.00
2023-05-10T06:29:27.594Z,1261.00
2023-05-10T06:30:27.677Z,1268.00
2023-05-10T06:31:27.636Z,1278.00
2023-05-10T06:32:27.591Z,1302.00
2023-05-10T06:33:27.616Z,1319.00
2023-05-10T06:34:27.616Z,1335.00
2023-05-10T06:35:27.636Z,1354.00
2023-05-10T06:36:27.679Z,1373.00
2023-05-10T06:37:27.694Z,1308.00
2023-05-10T06:38:27.949Z,1284.00
2023-05-10T06:39:27.698Z,1044.00
2023-05-10T06:40:27.719Z,932.00
2023-05-10T06:41:27.811Z,1003.00
2023-05-10T06:42:27.730Z,1046.00
2023-05-10T06:43:27.737Z,1036.00
2023-05-10T06:44:27.741Z,1014.00
2023-05-10T06:45:27.757Z,965.00
2023-05-10T06:46:27.739Z,913.00
2023-05-10T06:47:28.999Z,896.00
2023-05-10T06:48:27.820Z,882.00
2023-05-10T06:49:28.002Z,893.00
2023-05-10T06:50:27.881Z,926.00
2023-05-10T06:51:27.882Z,906.00
2023-05-10T06:52:27.901Z,897.00
2023-05-10T06:53:28.004Z,888.00
2023-05-10T06:54:28.070Z,896.00
2023-05-10T06:55:28.490Z,885.00
2023-05-10T06:56:27.970Z,877.00
2023-05-10T06:57:31.757Z,903.00
2023-05-10T06:58:27.987Z,898.00
2023-05-10T06:59:28.027Z,893.00
2023-05-10T07:00:28.067Z,886.00
2023-05-10T07:01:27.979Z,880.00
2023-05-10T07:02:28.114Z,876.00
2023-05-10T07:03:27.977Z,854.00
2023-05-10T07:04:27.997Z,846.00
2023-05-10T07:05:27.971Z,840.00
2023-05-10T07:06:33.700Z,837.00
2023-05-10T07:07:28.919Z,836.00
2023-05-10T07:08:27.904Z,828.00
2023-05-10T07:09:27.978Z,822.00
2023-05-10T07:10:27.969Z,812.00
2023-05-10T07:11:27.905Z,810.00
2023-05-10T07:12:28.034Z,851.00
2023-05-10T07:13:27.915Z,900.00
2023-05-10T07:14:27.979Z,912.00
2023-05-10T07:15:28.016Z,918.00
2023-05-10T07:16:27.892Z,924.00
2023-05-10T07:17:27.949Z,932.00
2023-05-10T07:18:27.911Z,941.00
2023-05-10T07:19:27.943Z,954.00
2023-05-10T07:20:27.892Z,963.00
2023-05-10T07:21:27.890Z,976.00
2023-05-10T07:22:27.978Z,996.00
2023-05-10T07:23:27.816Z,1019.00
2023-05-10T07:24:27.805Z,1037.00
2023-05-10T07:25:27.813Z,1052.00
2023-05-10T07:26:27.819Z,1067.00
2023-05-10T07:27:27.887Z,1080.00
2023-05-10T07:28:27.963Z,1093.00
2023-05-10T07:29:27.988Z,1111.00
2023-05-10T07:30:28.064Z,1136.00
2023-05-10T07:31:28.104Z,1163.00
2023-05-10T07:32:28.236Z,1059.00
2023-05-10T07:33:28.183Z,981.00
2023-05-10T07:34:28.247Z,910.00
2023-05-10T07:35:28.497Z,814.00
2023-05-10T07:36:28.251Z,770.00
2023-05-10T07:37:30.004Z,829.00
2023-05-10T07:38:28.265Z,780.00
2023-05-10T07:39:28.578Z,770.00
2023-05-10T07:40:28.372Z,770.00
2023-05-10T07:41:28.539Z,775.00
2023-05-10T07:42:28.408Z,780.00
2023-05-10T07:43:28.528Z,781.00
2023-05-10T07:44:28.526Z,775.00
2023-05-10T07:45:28.520Z,767.00
2023-05-10T07:46:28.592Z,761.00
2023-05-10T07:47:28.596Z,751.00
2023-05-10T07:48:28.574Z,752.00
2023-05-10T07:49:28.658Z,745.00
2023-05-10T07:50:28.641Z,737.00
2023-05-10T07:51:28.656Z,721.00
2023-05-10T07:52:28.657Z,712.00
2023-05-10T07:53:28.776Z,702.00
2023-05-10T07:54:28.721Z,698.00
2023-05-10T07:55:28.730Z,698.00
2023-05-10T07:56:28.731Z,700.00
2023-05-10T07:57:28.823Z,699.00
2023-05-10T07:58:28.806Z,697.00
2023-05-10T07:59:28.821Z,745.00
2023-05-10T08:00:28.830Z,746.00
2023-05-10T08:01:28.838Z,752.00
2023-05-10T08:02:28.906Z,779.00
2023-05-10T08:03:29.008Z,776.00
2023-05-10T08:04:28.935Z,783.00
2023-05-10T08:05:28.854Z,788.00
2023-05-10T08:06:28.856Z,792.00
2023-05-10T08:07:28.889Z,805.00
2023-05-10T08:08:28.880Z,802.00
2023-05-10T08:09:28.927Z,810.00
2023-05-10T08:10:28.894Z,818.00
2023-05-10T08:11:28.891Z,840.00
2023-05-10T08:12:29.117Z,854.00
2023-05-10T08:13:29.016Z,853.00
2023-05-10T08:14:28.909Z,860.00
2023-05-10T08:15:28.924Z,869.00
2023-05-10T08:16:28.994Z,877.00
2023-05-10T08:17:29.016Z,885.00
2023-05-10T08:18:29.028Z,886.00
2023-05-10T08:19:28.949Z,889.00
2023-05-10T08:20:29.111Z,899.00
2023-05-10T08:21:29.024Z,915.00
2023-05-10T08:22:29.070Z,931.00
2023-05-10T08:23:29.067Z,940.00
2023-05-10T08:24:29.071Z,946.00
2023-05-10T08:25:29.151Z,946.00
2023-05-10T08:26:29.269Z,923.00
2023-05-10T08:27:29.243Z,796.00
2023-05-10T08:28:29.213Z,767.00
2023-05-10T08:29:32.782Z,763.00
2023-05-10T08:30:30.252Z,689.00
2023-05-10T08:31:29.314Z,693.00
2023-05-10T08:32:29.318Z,678.00
2023-05-10T08:33:29.188Z,660.00
2023-05-10T08:34:29.208Z,622.00
2023-05-10T08:35:29.199Z,623.00
2023-05-10T08:36:29.187Z,622.00
2023-05-10T08:37:29.329Z,631.00
2023-05-10T08:38:29.171Z,641.00
2023-05-10T08:39:30.905Z,673.00
2023-05-10T08:40:29.133Z,688.00
2023-05-10T08:41:29.138Z,693.00
2023-05-10T08:42:29.163Z,703.00
2023-05-10T08:43:29.116Z,704.00
2023-05-10T08:44:29.184Z,710.00
2023-05-10T08:45:29.174Z,723.00
2023-05-10T08:46:29.245Z,779.00
2023-05-10T08:47:29.314Z,794.00
2023-05-10T08:48:29.372Z,823.00
2023-05-10T08:49:29.365Z,845.00
2023-05-10T08:50:29.531Z,857.00
2023-05-10T08:51:29.479Z,871.00
2023-05-10T08:52:29.433Z,891.00
2023-05-10T08:53:29.546Z,921.00
2023-05-10T08:54:29.405Z,937.00
2023-05-10T08:55:29.399Z,947.00
2023-05-10T08:56:29.513Z,961.00
2023-05-10T08:57:29.460Z,977.00
2023-05-10T08:58:29.515Z,1004.00
2023-05-10T08:59:29.608Z,1038.00
2023-05-10T09:00:29.597Z,1055.00
2023-05-10T09:01:29.779Z,1066.00
2023-05-10T09:02:29.770Z,1072.00
2023-05-10T09:03:29.764Z,1085.00
2023-05-10T09:04:29.912Z,1133.00
2023-05-10T09:05:29.919Z,1145.00
2023-05-10T09:06:29.895Z,1138.00
2023-05-10T09:07:30.001Z,1146.00
2023-05-10T09:08:30.002Z,1149.00
2023-05-10T09:09:30.052Z,1163.00
2023-05-10T09:10:30.122Z,1174.00
2023-05-10T09:11:30.186Z,1198.00
2023-05-10T09:12:30.195Z,1219.00
2023-05-10T09:13:30.307Z,1238.00
2023-05-10T09:14:30.294Z,1273.00
2023-05-10T09:15:30.361Z,1280.00
2023-05-10T09:16:30.405Z,1297.00
2023-05-10T09:17:30.437Z,1312.00
2023-05-10T09:18:30.588Z,1314.00
2023-05-10T09:19:30.484Z,1297.00
2023-05-10T09:20:30.547Z,1278.00
2023-05-10T09:21:31.026Z,1051.00
2023-05-10T09:22:30.655Z,1079.00
2023-05-10T09:23:30.732Z,959.00
2023-05-10T09:24:30.763Z,954.00
2023-05-10T09:25:30.840Z,965.00
2023-05-10T09:26:31.134Z,1073.00
2023-05-10T09:27:30.953Z,1042.00
2023-05-10T09:28:31.065Z,1121.00
2023-05-10T09:29:31.022Z,1111.00
2023-05-10T09:30:31.073Z,1118.00
2023-05-10T09:31:31.152Z,1124.00
2023-05-10T09:32:31.241Z,1138.00
2023-05-10T09:33:31.295Z,1213.00
2023-05-10T09:34:32.143Z,1021.00
2023-05-10T09:35:31.250Z,903.00
2023-05-10T09:36:31.363Z,870.00
2023-05-10T09:37:31.260Z,855.00
2023-05-10T09:38:31.540Z,850.00
2023-05-10T09:39:31.357Z,840.00
2023-05-10T09:40:31.385Z,837.00
2023-05-10T09:41:31.486Z,841.00
2023-05-10T09:42:31.414Z,843.00
2023-05-10T09:43:31.586Z,848.00
2023-05-10T09:44:31.481Z,842.00
2023-05-10T09:45:31.420Z,860.00
2023-05-10T09:46:31.460Z,888.00
2023-05-10T09:47:31.468Z,901.00
2023-05-10T09:48:31.502Z,941.00
2023-05-10T09:49:31.456Z,939.00
2023-05-10T09:50:31.423Z,952.00
2023-05-10T09:51:31.458Z,959.00
2023-05-10T09:52:32.121Z,963.00
2023-05-10T09:53:31.667Z,969.00
2023-05-10T09:54:31.665Z,976.00
2023-05-10T09:55:31.766Z,988.00
2023-05-10T09:56:31.782Z,1003.00
2023-05-10T09:57:34.524Z,1017.00
2023-05-10T09:58:31.784Z,1025.00
2023-05-10T09:59:31.824Z,1034.00
2023-05-10T10:00:31.797Z,1045.00
2023-05-10T10:01:31.837Z,1064.00
2023-05-10T10:02:32.566Z,1080.00
2023-05-10T10:03:31.756Z,1090.00
2023-05-10T10:04:31.803Z,1100.00
2023-05-10T10:05:31.740Z,1117.00
2023-05-10T10:06:31.768Z,1139.00
2023-05-10T10:07:31.788Z,1148.00
2023-05-10T10:08:32.110Z,1162.00
2023-05-10T10:09:31.697Z,1172.00
2023-05-10T10:10:31.701Z,1182.00
2023-05-10T10:11:31.712Z,1196.00
2023-05-10T10:12:31.736Z,1210.00
2023-05-10T10:13:31.729Z,1221.00
2023-05-10T10:14:31.708Z,1228.00
2023-05-10T10:15:32.048Z,1242.00
2023-05-10T10:16:31.798Z,1249.00
2023-05-10T10:17:31.694Z,1265.00
2023-05-10T10:18:32.101Z,1280.00
2023-05-10T10:19:32.070Z,1291.00
2023-05-10T10:20:31.624Z,1305.00
2023-05-10T10:21:31.634Z,1313.00
2023-05-10T10:22:32.060Z,1321.00
2023-05-10T10:23:31.663Z,1324.00
2023-05-10T10:24:31.805Z,1330.00
2023-05-10T10:25:31.622Z,1333.00
2023-05-10T10:26:32.138Z,1335.00
2023-05-10T10:27:31.577Z,1340.00
2023-05-10T10:28:31.626Z,1342.00
2023-05-10T10:29:31.623Z,1337.00
2023-05-10T10:30:31.593Z,1338.00
2023-05-10T10:31:31.590Z,1176.00
2023-05-10T10:32:31.708Z,1158.00
2023-05-10T10:33:31.584Z,1112.00
2023-05-10T10:34:31.588Z,1152.00
2023-05-10T10:35:31.576Z,1244.00
2023-05-10T10:36:31.543Z,1255.00
2023-05-10T10:37:31.550Z,1253.00
2023-05-10T10:38:31.554Z,1252.00
2023-05-10T10:39:31.498Z,1255.00
2023-05-10T10:40:34.377Z,1262.00
2023-05-10T10:41:31.710Z,1268.00
2023-05-10T10:42:31.586Z,1276.00
2023-05-10T10:43:31.500Z,1287.00
2023-05-10T10:44:33.078Z,1300.00
2023-05-10T10:45:31.503Z,1306.00
2023-05-10T10:46:31.442Z,1305.00
2023-05-10T10:47:31.468Z,1333.00
2023-05-10T10:48:31.447Z,1338.00
2023-05-10T10:49:31.459Z,1345.00
2023-05-10T10:50:31.421Z,1353.00
2023-05-10T10:51:31.427Z,1361.00
2023-05-10T10:52:31.441Z,1368.00
2023-05-10T10:53:31.487Z,1373.00
2023-05-10T10:54:31.468Z,1382.00
2023-05-10T10:55:31.456Z,1390.00
2023-05-10T10:56:31.398Z,1396.00
2023-05-10T10:57:31.384Z,1404.00
2023-05-10T10:58:31.436Z,1422.00
2023-05-10T10:59:31.378Z,1439.00
2023-05-10T11:00:31.389Z,1452.00
2023-05-10T11:01:31.515Z,1465.00
2023-05-10T11:02:31.448Z,1478.00
2023-05-10T11:03:31.366Z,1489.00
2023-05-10T11:04:31.493Z,1499.00
2023-05-10T11:05:31.558Z,1503.00
2023-05-10T11:06:31.334Z,1513.00
2023-05-10T11:07:31.340Z,1521.00
2023-05-10T11:08:31.602Z,1527.00
2023-05-10T11:09:31.343Z,1565.00
2023-05-10T11:10:31.368Z,1578.00
2023-05-10T11:11:31.665Z,1591.00
2023-05-10T11:12:31.635Z,1595.00
2023-05-10T11:13:31.500Z,1602.00
2023-05-10T11:14:31.383Z,1616.00
2023-05-10T11:15:31.603Z,1630.00
2023-05-10T11:16:31.537Z,1654.00
2023-05-10T11:17:31.664Z,1665.00
2023-05-10T11:18:31.565Z,1677.00
2023-05-10T11:19:31.450Z,1737.00
2023-05-10T11:20:31.486Z,1763.00
2023-05-10T11:21:31.487Z,1672.00
2023-05-10T11:22:31.538Z,1327.00
2023-05-10T11:23:31.554Z,1207.00
2023-05-10T11:24:31.660Z,1053.00
2023-05-10T11:25:31.671Z,924.00
2023-05-10T11:26:31.696Z,889.00
2023-05-10T11:27:31.704Z,863.00
2023-05-10T11:28:31.819Z,832.00
2023-05-10T11:29:31.792Z,810.00
2023-05-10T11:30:31.853Z,737.00
2023-05-10T11:31:31.829Z,676.00
2023-05-10T11:32:31.964Z,666.00
2023-05-10T11:33:31.822Z,652.00
2023-05-10T11:34:31.873Z,630.00
2023-05-10T11:35:31.833Z,600.00
2023-05-10T11:36:31.837Z,573.00
2023-05-10T11:37:31.837Z,553.00
2023-05-10T11:38:31.905Z,544.00
2023-05-10T11:39:31.894Z,539.00
2023-05-10T11:40:31.914Z,520.00
2023-05-10T11:41:31.999Z,513.00
2023-05-10T11:42:31.972Z,501.00
2023-05-10T11:43:32.028Z,491.00
2023-05-10T11:44:32.035Z,484.00
2023-05-10T11:45:32.100Z,476.00
2023-05-10T11:46:32.268Z,474.00
2023-05-10T11:47:32.154Z,472.00
2023-05-10T11:48:32.238Z,470.00
2023-05-10T11:49:33.119Z,464.00
2023-05-10T11:50:32.282Z,460.00
2023-05-10T11:51:32.301Z,459.00
2023-05-10T11:52:32.415Z,457.00
2023-05-10T11:53:32.400Z,453.00
2023-05-10T11:54:32.554Z,451.00
2023-05-10T11:55:32.524Z,448.00
2023-05-10T11:56:32.672Z,445.00
2023-05-10T11:57:32.640Z,440.00
2023-05-10T11:58:32.762Z,438.00
2023-05-10T11:59:32.846Z,436.00
2023-05-10T12:00:32.841Z,435.00
2023-05-10T12:01:33.051Z,435.00
2023-05-10T12:02:33.023Z,449.00
2023-05-10T12:03:33.363Z,590.00
2023-05-10T12:04:33.105Z,596.00
2023-05-10T12:05:33.087Z,607.00
2023-05-10T12:06:33.337Z,609.00
2023-05-10T12:07:33.210Z,622.00
2023-05-10T12:08:33.236Z,628.00
2023-05-10T12:09:43.080Z,641.00
2023-05-10T12:10:34.319Z,676.00
2023-05-10T12:11:34.123Z,674.00
2023-05-10T12:12:33.241Z,684.00
2023-05-10T12:13:33.270Z,791.00
2023-05-10T12:14:33.241Z,777.00
2023-05-10T12:15:33.350Z,776.00
2023-05-10T12:16:33.338Z,789.00
2023-05-10T12:17:33.265Z,806.00
2023-05-10T12:18:33.208Z,832.00
2023-05-10T12:19:33.240Z,899.00
2023-05-10T12:20:33.201Z,926.00
2023-05-10T12:21:33.224Z,962.00
2023-05-10T12:22:33.188Z,974.00
2023-05-10T12:23:33.185Z,989.00